Time;durP1;ratioP1;P1;durP2;ratioP2;P2;SDS_P1;SDS_P2;PMS_P1;PMS_P2;Temp;Humidity;BMP_temperature;BMP_pressure;BME280_temperature;BME280_humidity;BME280_pressure;Samples;Min_cycle;Max_cycle;Signal;HPM_P1;HPM_P2
2023/07/08 00:01:56;;;;;;;6.22;3.70;;;;;;;22.56;48.06;93869.00;5048887;28;20021;-89
2023/07/08 00:04:22;;;;;;;6.30;4.20;;;;;;;22.55;48.13;93864.75;5047484;28;20097;-89
2023/07/08 00:06:47;;;;;;;4.93;3.97;;;;;;;22.55;48.01;93867.50;5044934;23;20015;-88
2023/07/08 00:09:13;;;;;;;6.05;3.95;;;;;;;22.54;48.05;93860.50;5013334;28;20041;-89
2023/07/08 00:11:38;;;;;;;5.35;3.70;;;;;;;22.57;47.99;93872.50;5033021;28;20041;-88
2023/07/08 00:14:04;;;;;;;7.68;4.03;;;;;;;22.56;47.79;93866.22;5031738;28;20034;-88
2023/07/08 00:16:29;;;;;;;5.93;4.15;;;;;;;22.55;47.91;93862.00;5015496;28;20029;-88
2023/07/08 00:18:54;;;;;;;7.00;4.05;;;;;;;22.53;47.91;93858.28;5019214;23;20038;-89
2023/07/08 00:21:20;;;;;;;5.05;3.42;;;;;;;22.54;47.78;93860.50;5048573;23;20523;-88
2023/07/08 00:23:46;;;;;;;5.15;4.03;;;;;;;22.54;47.70;93873.53;5052670;23;20111;-89
2023/07/08 00:26:18;;;;;;;6.90;4.53;;;;;;;22.54;47.83;93873.53;5056732;23;20052;-88
2023/07/08 00:28:44;;;;;;;6.88;4.38;;;;;;;22.54;47.66;93866.00;5007385;28;20069;-88
2023/07/08 00:31:10;;;;;;;6.28;3.80;;;;;;;22.52;47.93;93865.78;4990529;28;20046;-89
2023/07/08 00:33:35;;;;;;;5.80;3.60;;;;;;;22.52;47.99;93859.53;4992762;28;20046;-89
2023/07/08 00:36:00;;;;;;;6.88;4.43;;;;;;;22.52;47.78;93865.06;4974089;28;20038;-89
2023/07/08 00:38:27;;;;;;;6.43;4.00;;;;;;;22.52;47.98;93862.28;5040066;23;20055;-89
2023/07/08 00:41:00;;;;;;;5.20;3.78;;;;;;;22.50;47.85;93860.09;5048043;23;20039;-88
2023/07/08 00:43:36;;;;;;;5.68;3.47;;;;;;;22.49;47.91;93861.38;5048824;28;20037;-89
2023/07/08 00:46:24;;;;;;;5.57;3.92;;;;;;;22.50;48.03;93860.09;5067527;28;20037;-89
2023/07/08 00:48:50;;;;;;;6.13;3.67;;;;;;;22.50;47.81;93851.81;5027093;28;20528;-89
2023/07/08 00:51:16;;;;;;;6.78;4.00;;;;;;;22.50;48.38;93842.81;4978052;28;20069;-89
2023/07/08 00:53:41;;;;;;;6.60;4.13;;;;;;;22.50;47.73;93845.56;4986236;28;20038;-88
2023/07/08 00:56:11;;;;;;;5.45;3.60;;;;;;;22.49;47.68;93831.06;4991687;23;20056;-89
2023/07/08 00:58:43;;;;;;;5.65;3.42;;;;;;;22.49;47.82;93833.06;5036406;23;20059;-88
2023/07/08 01:01:08;;;;;;;4.47;3.33;;;;;;;22.48;47.65;93828.81;5037014;22;20051;-88
2023/07/08 01:03:36;;;;;;;5.18;3.50;;;;;;;22.48;47.95;93839.84;5064946;28;20041;-88
2023/07/08 01:06:01;;;;;;;6.63;4.18;;;;;;;22.49;48.05;93830.31;5044282;23;20048;-89
2023/07/08 01:08:28;;;;;;;7.18;4.25;;;;;;;22.49;47.79;93824.81;5026414;28;20033;-88
2023/07/08 01:10:56;;;;;;;5.25;3.38;;;;;;;22.48;47.88;93829.56;5017709;23;20035;-88
2023/07/08 01:13:21;;;;;;;5.07;3.85;;;;;;;22.47;47.95;93821.84;5009488;23;20135;-89
2023/07/08 01:15:48;;;;;;;7.57;3.85;;;;;;;22.46;47.85;93826.59;4981104;23;20031;-88
2023/07/08 01:18:16;;;;;;;5.93;3.50;;;;;;;22.46;47.88;93818.34;5054104;23;20044;-88
2023/07/08 01:20:42;;;;;;;6.22;3.75;;;;;;;22.46;47.90;93817.59;5023080;28;20041;-88
2023/07/08 01:23:07;;;;;;;5.47;3.58;;;;;;;22.47;47.87;93814.31;5030758;28;20067;-88
2023/07/08 01:25:33;;;;;;;5.30;3.70;;;;;;;22.47;48.02;93800.53;5027144;28;20075;-88
2023/07/08 01:27:58;;;;;;;4.95;3.50;;;;;;;22.46;47.98;93809.31;5029085;28;20036;-91
2023/07/08 01:30:25;;;;;;;5.90;3.78;;;;;;;22.46;48.12;93799.03;5058256;23;20495;-88
2023/07/08 01:32:55;;;;;;;4.90;2.95;;;;;;;22.45;47.79;93802.34;5032813;23;20101;-89
2023/07/08 01:35:21;;;;;;;3.90;3.08;;;;;;;22.45;47.85;93783.03;5030025;23;20157;-88
2023/07/08 01:37:54;;;;;;;4.50;3.70;;;;;;;22.45;47.87;93791.31;5010365;28;20018;-88
2023/07/08 01:40:24;;;;;;;5.45;3.85;;;;;;;22.44;47.61;93782.31;5011153;28;20030;-88
2023/07/08 01:42:49;;;;;;;6.78;4.30;;;;;;;22.45;47.71;93772.03;5011146;28;20113;-88
2023/07/08 01:45:16;;;;;;;5.10;3.65;;;;;;;22.44;47.73;93776.78;5022271;28;20039;-90
2023/07/08 01:50:08;;;;;;;4.57;2.97;;;;;;;22.44;47.57;93765.03;5043861;22;20049;-88
2023/07/08 01:52:33;;;;;;;6.40;3.85;;;;;;;22.45;47.65;93766.50;4984103;23;20051;-90
2023/07/08 01:54:59;;;;;;;5.30;3.38;;;;;;;22.44;47.98;93771.28;5020767;22;20063;-89
2023/07/08 01:57:24;;;;;;;4.60;3.13;;;;;;;22.43;47.74;93777.31;5036554;23;20044;-89
2023/07/08 01:59:50;;;;;;;5.75;3.50;;;;;;;22.42;47.84;93768.31;5081288;23;20025;-88
2023/07/08 02:02:15;;;;;;;6.07;3.58;;;;;;;22.43;47.67;93772.56;5047061;28;20064;-88
2023/07/08 02:04:41;;;;;;;4.07;3.22;;;;;;;22.42;47.95;93768.31;5036901;28;20524;-89
2023/07/08 02:07:07;;;;;;;4.90;3.22;;;;;;;22.43;47.63;93769.06;5048921;28;20049;-89
2023/07/08 02:09:34;;;;;;;5.57;3.63;;;;;;;22.41;47.75;93766.81;5049106;28;20031;-89
2023/07/08 02:11:59;;;;;;;3.42;2.65;;;;;;;22.42;47.81;93770.31;5043422;28;20024;-88
2023/07/08 02:14:26;;;;;;;6.00;3.58;;;;;;;22.43;47.59;93760.78;5066071;28;20044;-88
2023/07/08 02:16:51;;;;;;;4.20;3.15;;;;;;;22.41;47.78;93758.56;5049508;28;20041;-89
2023/07/08 02:19:17;;;;;;;5.10;3.40;;;;;;;22.42;47.73;93756.56;5033995;28;20404;-88
2023/07/08 02:21:42;;;;;;;4.07;2.72;;;;;;;22.43;47.80;93760.78;5047203;28;20033;-88
2023/07/08 02:24:10;;;;;;;5.20;3.00;;;;;;;22.41;47.85;93761.31;5046753;28;20048;-88
2023/07/08 02:26:35;;;;;;;5.22;3.05;;;;;;;22.42;47.78;93751.03;5027285;28;20033;-88
2023/07/08 02:29:01;;;;;;;4.65;3.33;;;;;;;22.41;47.67;93749.56;5043854;28;20041;-89
2023/07/08 02:31:26;;;;;;;4.18;3.30;;;;;;;22.40;47.86;93748.81;5041785;28;20037;-88
2023/07/08 02:33:52;;;;;;;4.93;3.38;;;;;;;22.39;47.76;93752.84;5049200;28;20071;-88
2023/07/08 02:36:18;;;;;;;6.03;3.40;;;;;;;22.39;48.16;93755.59;5043482;28;20056;-89
2023/07/08 02:38:43;;;;;;;4.85;3.20;;;;;;;22.39;47.63;93761.09;5034725;28;20040;-89
2023/07/08 02:41:17;;;;;;;4.03;2.95;;;;;;;22.39;47.48;93755.59;5049317;28;20032;-88
2023/07/08 02:43:43;;;;;;;4.10;3.17;;;;;;;22.40;47.53;93764.59;5048744;28;20033;-89
2023/07/08 02:46:08;;;;;;;4.40;3.20;;;;;;;22.39;47.68;93760.34;5044547;28;20053;-88
2023/07/08 02:48:34;;;;;;;3.90;2.92;;;;;;;22.39;47.69;93757.59;5048550;28;20017;-89
2023/07/08 02:51:00;;;;;;;5.20;3.45;;;;;;;22.39;47.97;93772.13;5047860;28;20033;-89
2023/07/08 02:53:25;;;;;;;4.80;3.58;;;;;;;22.40;47.51;93767.34;5047587;23;20492;-89
2023/07/08 02:55:51;;;;;;;3.95;2.38;;;;;;;22.39;47.56;93766.59;5034779;22;20006;-89
2023/07/08 02:58:16;;;;;;;6.00;3.33;;;;;;;22.39;47.69;93766.59;5029128;23;20050;-89
2023/07/08 03:00:41;;;;;;;3.20;2.53;;;;;;;22.40;47.66;93767.34;5034991;28;20069;-88
2023/07/08 03:03:07;;;;;;;3.92;2.90;;;;;;;22.38;47.61;93765.13;5004186;28;20047;-88
2023/07/08 03:05:33;;;;;;;5.40;3.50;;;;;;;22.39;47.50;93774.13;5022748;28;20039;-89
2023/07/08 03:07:59;;;;;;;3.88;3.00;;;;;;;22.37;47.55;93771.16;5046657;23;20068;-88
2023/07/08 03:10:24;;;;;;;4.63;3.10;;;;;;;22.39;47.72;93769.38;5046083;28;20033;-90
2023/07/08 03:12:50;;;;;;;4.15;3.10;;;;;;;22.38;47.58;93769.88;5032731;23;20042;-89
2023/07/08 03:15:15;;;;;;;4.10;3.13;;;;;;;22.37;47.65;93762.91;5034037;23;20040;-90
2023/07/08 03:20:06;;;;;;;4.90;3.25;;;;;;;22.37;47.71;93758.13;5050768;22;20037;-91
2023/07/08 03:22:38;;;;;;;4.50;3.20;;;;;;;22.37;47.49;93769.16;5034630;28;20069;-89
2023/07/08 03:25:04;;;;;;;4.97;3.33;;;;;;;22.37;47.63;93763.63;5051985;23;20542;-88
2023/07/08 03:27:29;;;;;;;3.33;2.90;;;;;;;22.36;47.64;93764.91;5017703;28;20049;-88
2023/07/08 03:29:55;;;;;;;6.05;3.42;;;;;;;22.37;47.48;93768.41;5052641;23;20037;-89
2023/07/08 03:32:20;;;;;;;4.63;3.08;;;;;;;22.36;47.55;93762.16;5094705;22;20115;-89
2023/07/08 03:34:46;;;;;;;4.18;2.70;;;;;;;22.36;47.19;93770.41;5031908;23;20049;-90
2023/07/08 03:37:11;;;;;;;4.70;2.90;;;;;;;22.37;47.46;93769.16;5021972;23;20408;-88
2023/07/08 03:39:36;;;;;;;4.38;2.95;;;;;;;22.37;47.41;93774.66;5014882;28;20045;-89
2023/07/08 03:42:03;;;;;;;4.60;3.30;;;;;;;22.38;47.46;93770.63;5014744;28;20034;-89
2023/07/08 03:44:29;;;;;;;3.47;2.63;;;;;;;22.38;47.43;93769.88;5063440;23;20051;-90
2023/07/08 03:49:23;;;;;;;3.28;2.75;;;;;;;22.37;47.31;93768.41;5074319;22;20049;-89
2023/07/08 03:51:53;;;;;;;3.40;2.75;;;;;;;22.37;47.35;93769.16;5041761;22;20045;-88
2023/07/08 03:54:21;;;;;;;3.90;3.00;;;;;;;22.40;47.24;93767.34;5058397;22;20034;-89
2023/07/08 03:56:56;;;;;;;3.65;2.65;;;;;;;22.41;47.33;93768.84;5036395;28;20021;-89
2023/07/08 03:59:30;;;;;;;4.63;3.03;;;;;;;22.40;47.22;93770.84;5054000;28;20038;-89
2023/07/08 04:01:59;;;;;;;4.07;2.83;;;;;;;22.40;47.19;93776.34;5067778;22;20141;-89
2023/07/08 04:04:24;;;;;;;5.30;2.80;;;;;;;22.40;47.22;93767.34;5072183;22;20045;-89
2023/07/08 04:06:50;;;;;;;3.70;2.67;;;;;;;22.41;47.17;93768.84;5041550;22;20033;-89
2023/07/08 04:09:16;;;;;;;4.68;2.92;;;;;;;22.39;47.22;93772.13;5017963;23;20062;-89
2023/07/08 04:11:41;;;;;;;3.83;2.85;;;;;;;22.41;47.22;93768.84;5017935;23;20051;-89
2023/07/08 04:14:09;;;;;;;4.22;3.25;;;;;;;22.42;46.96;93773.81;5032698;23;20080;-88
2023/07/08 04:16:52;;;;;;;4.82;2.60;;;;;;;22.43;47.27;93767.03;5031368;28;20030;-88
2023/07/08 04:19:17;;;;;;;3.40;2.50;;;;;;;22.42;46.66;93768.31;5030914;28;20102;-89
2023/07/08 04:21:43;;;;;;;3.67;2.47;;;;;;;22.42;47.17;93762.06;5034102;28;20049;-88
2023/07/08 04:24:10;;;;;;;4.18;3.17;;;;;;;22.43;47.04;93756.03;5020465;28;20017;-89
2023/07/08 04:26:36;;;;;;;3.78;2.72;;;;;;;22.43;47.26;93760.78;5024115;28;20042;-88
2023/07/08 04:29:02;;;;;;;3.80;2.80;;;;;;;22.44;47.02;93763.03;5011725;22;20036;-89
2023/07/08 04:31:27;;;;;;;4.07;2.83;;;;;;;22.45;47.01;93761.00;5029702;23;20386;-88
2023/07/08 04:33:52;;;;;;;3.90;2.97;;;;;;;22.47;47.00;93761.22;5024756;23;20083;-89
2023/07/08 04:36:21;;;;;;;3.55;2.60;;;;;;;22.47;47.36;93759.22;5035408;28;20042;-89
2023/07/08 04:38:46;;;;;;;3.15;2.20;;;;;;;22.48;47.26;93759.94;5034621;28;20400;-90
2023/07/08 04:41:12;;;;;;;3.28;2.33;;;;;;;22.50;47.39;93766.41;5055298;23;20050;-88
2023/07/08 04:46:02;;;;;;;3.33;2.63;;;;;;;22.54;47.32;93763.31;5025490;22;20045;-89
2023/07/08 04:48:28;;;;;;;3.38;2.67;;;;;;;22.56;47.37;93758.03;5013537;23;20050;-89
2023/07/08 04:50:53;;;;;;;2.35;2.15;;;;;;;22.56;47.28;93760.78;5029920;28;20037;-89
2023/07/08 04:53:19;;;;;;;2.78;2.30;;;;;;;22.57;47.10;93760.25;5065955;22;20072;-89
2023/07/08 04:55:55;;;;;;;3.67;2.58;;;;;;;22.58;47.24;93749.97;5039467;28;20029;-92
2023/07/08 04:58:20;;;;;;;3.53;2.50;;;;;;;22.58;47.09;93755.50;5056893;28;20037;-89
2023/07/08 05:00:46;;;;;;;3.28;2.50;;;;;;;22.58;47.19;93755.50;5035062;23;20041;-90
2023/07/08 05:03:11;;;;;;;4.65;2.85;;;;;;;22.58;47.14;93745.22;5040933;23;20050;-90
2023/07/08 05:08:02;;;;;;;2.95;2.08;;;;;;;22.61;46.91;93743.41;5068211;22;20079;-88
2023/07/08 05:10:27;;;;;;;4.43;1.90;;;;;;;22.61;47.07;93739.91;5045609;28;20148;-89
2023/07/08 05:12:53;;;;;;;3.83;2.63;;;;;;;22.64;47.06;93739.59;5064262;23;20049;-90
2023/07/08 05:15:18;;;;;;;2.78;2.05;;;;;;;22.64;46.93;93738.84;5067951;28;20041;-88
2023/07/08 05:17:44;;;;;;;3.28;2.35;;;;;;;22.66;46.72;93734.28;5045312;22;20022;-89
2023/07/08 05:20:11;;;;;;;2.60;2.03;;;;;;;22.66;46.89;93739.06;5048113;28;20033;-88
2023/07/08 05:22:36;;;;;;;3.08;2.30;;;;;;;22.68;46.94;93731.75;5040896;23;20067;-88
2023/07/08 05:25:02;;;;;;;2.83;2.08;;;;;;;22.68;46.95;93737.28;5032673;28;20071;-89
2023/07/08 05:27:29;;;;;;;3.28;2.47;;;;;;;22.69;47.14;93729.75;5049267;28;20041;-88
2023/07/08 05:29:55;;;;;;;3.13;2.10;;;;;;;22.69;46.84;93730.47;5032391;22;20788;-89
2023/07/08 05:32:20;;;;;;;2.50;1.95;;;;;;;22.69;47.10;93738.00;5027048;28;20034;-90
2023/07/08 05:34:46;;;;;;;2.75;2.17;;;;;;;22.71;47.09;93743.75;5033643;23;20069;-89
2023/07/08 05:37:12;;;;;;;3.17;2.38;;;;;;;22.70;46.88;93733.97;5023285;28;20050;-88
2023/07/08 05:39:37;;;;;;;3.55;2.53;;;;;;;22.70;47.09;93743.00;5043499;23;20049;-89
2023/07/08 05:42:04;;;;;;;2.63;1.98;;;;;;;22.70;46.99;93751.25;5003181;28;20022;-88
2023/07/08 05:44:29;;;;;;;3.47;2.33;;;;;;;22.71;47.14;93755.50;5026478;28;20060;-88
2023/07/08 05:46:58;;;;;;;3.05;2.63;;;;;;;22.71;46.87;93747.22;5039601;22;20057;-89
2023/07/08 05:49:23;;;;;;;2.55;2.05;;;;;;;22.71;47.01;93743.75;5021802;23;20058;-90
2023/07/08 05:51:49;;;;;;;3.05;2.40;;;;;;;22.71;46.81;93755.50;5005303;28;20057;-89
2023/07/08 05:54:14;;;;;;;3.95;2.70;;;;;;;22.75;46.94;93758.66;5005002;28;20038;-89
2023/07/08 05:56:40;;;;;;;3.10;1.90;;;;;;;22.75;47.10;93764.16;4989143;28;20069;-88
2023/07/08 05:59:05;;;;;;;3.53;2.17;;;;;;;22.75;46.91;93763.44;5006578;23;20045;-88
2023/07/08 06:01:31;;;;;;;2.75;2.20;;;;;;;22.74;46.98;93768.19;5022564;28;20049;-89
2023/07/08 06:03:59;;;;;;;2.75;2.40;;;;;;;22.76;46.87;93762.16;5063106;22;20049;-89
2023/07/08 06:06:25;;;;;;;2.90;2.17;;;;;;;22.75;46.92;93764.16;5032498;23;20037;-90
2023/07/08 06:08:50;;;;;;;3.10;2.20;;;;;;;22.76;46.87;93760.13;5051160;23;20061;-88
2023/07/08 06:11:16;;;;;;;2.55;1.85;;;;;;;22.78;46.94;93765.91;5046418;28;20045;-89
2023/07/08 06:13:41;;;;;;;2.50;2.03;;;;;;;22.79;46.70;93764.63;5025508;23;20058;-89
2023/07/08 06:16:07;;;;;;;2.10;1.65;;;;;;;22.79;46.84;93763.88;4999929;28;20050;-88
2023/07/08 06:18:32;;;;;;;2.75;1.80;;;;;;;22.79;46.98;93766.63;5002751;28;20048;-88
2023/07/08 06:20:58;;;;;;;2.97;2.28;;;;;;;22.80;46.79;93763.34;5007176;28;20038;-89
2023/07/08 06:23:25;;;;;;;3.50;1.83;;;;;;;22.80;46.76;93757.84;5005733;28;20117;-89
2023/07/08 06:25:51;;;;;;;2.00;1.80;;;;;;;22.80;46.81;93757.09;5034720;22;20099;-88
2023/07/08 06:28:16;;;;;;;3.42;2.00;;;;;;;22.79;46.60;93764.63;5072861;23;20041;-89
2023/07/08 06:30:44;;;;;;;2.58;1.90;;;;;;;22.80;46.52;93763.34;5078589;22;20053;-88
2023/07/08 06:33:11;;;;;;;3.67;2.15;;;;;;;22.81;46.65;93761.34;5053561;28;20037;-89
2023/07/08 06:35:36;;;;;;;1.92;1.52;;;;;;;22.83;46.50;93765.06;5042243;28;20112;-91
2023/07/08 06:38:02;;;;;;;2.42;1.77;;;;;;;22.83;46.64;93765.06;5036955;28;20044;-89
2023/07/08 06:40:46;;;;;;;2.67;1.83;;;;;;;22.83;46.48;93761.56;5053532;28;20026;-91
2023/07/08 06:43:11;;;;;;;2.65;2.00;;;;;;;22.83;46.51;93770.56;5054512;28;20069;-89
2023/07/08 06:45:36;;;;;;;3.13;2.05;;;;;;;22.83;46.80;93767.06;5037708;28;20041;-89
2023/07/08 06:48:02;;;;;;;2.33;1.77;;;;;;;22.84;46.58;93760.28;5054178;28;20038;-89
2023/07/08 06:50:27;;;;;;;3.42;1.83;;;;;;;22.85;46.61;93761.75;5084202;23;20033;-91
2023/07/08 06:52:53;;;;;;;2.95;2.22;;;;;;;22.87;46.47;93750.94;5046510;23;20041;-89
2023/07/08 06:55:18;;;;;;;3.05;2.25;;;;;;;22.89;46.47;93765.69;5147131;22;20045;-89
2023/07/08 06:57:44;;;;;;;2.35;1.60;;;;;;;22.88;46.49;93764.19;5090318;22;20055;-88
2023/07/08 07:00:11;;;;;;;3.67;2.30;;;;;;;22.88;46.43;93766.97;5062629;23;20044;-89
2023/07/08 07:02:37;;;;;;;2.95;2.10;;;;;;;22.90;46.67;93758.16;5041210;28;20031;-89
2023/07/08 07:05:03;;;;;;;4.18;2.33;;;;;;;22.91;46.54;93759.66;5057541;28;20041;-88
2023/07/08 07:07:35;;;;;;;2.75;1.67;;;;;;;22.89;46.40;93759.44;5057045;28;20116;-89
2023/07/08 07:10:02;;;;;;;2.60;1.95;;;;;;;22.90;46.48;93760.91;5088443;22;20210;-90
2023/07/08 07:12:28;;;;;;;2.75;2.10;;;;;;;22.92;46.59;93755.63;5037918;23;20035;-90
2023/07/08 07:14:58;;;;;;;2.58;1.90;;;;;;;22.93;46.63;93756.34;5038310;23;20061;-88
2023/07/08 07:17:25;;;;;;;;;;;;;;;22.93;46.56;93754.34;5062181;22;20101;-89
2023/07/08 07:19:50;;;;;;;3.78;2.28;;;;;;;22.94;46.37;93757.84;5053760;28;19917;-89
2023/07/08 07:22:16;;;;;;;2.53;1.90;;;;;;;22.93;46.43;93762.63;5052823;28;20024;-89
2023/07/08 07:24:56;;;;;;;3.42;2.10;;;;;;;22.95;46.45;93760.03;5040438;22;20037;-88
2023/07/08 07:27:21;;;;;;;;;;;;;;;22.97;46.30;93754.00;5050696;22;20160;-92
2023/07/08 07:29:53;;;;;;;3.43;2.43;;;;;;;22.95;46.29;93756.56;5068427;28;19917;-89
2023/07/08 07:32:19;;;;;;;2.60;2.00;;;;;;;22.96;46.60;93744.25;5041502;22;1174868;-90
2023/07/08 07:34:53;;;;;;;3.67;2.17;;;;;;;22.95;46.45;93740.03;5170136;23;20034;-88
2023/07/08 07:37:19;;;;;;;2.92;2.03;;;;;;;22.95;46.38;93743.50;5126755;22;20032;-88
2023/07/08 07:39:51;;;;;;;4.95;2.28;;;;;;;22.96;46.51;93749.75;5064668;22;20020;-89
2023/07/08 07:42:18;;;;;;;2.50;2.03;;;;;;;22.99;46.34;93745.94;5067671;23;20053;-89
2023/07/08 07:44:51;;;;;;;2.63;2.15;;;;;;;22.97;46.66;93745.72;5058611;22;20037;-89
2023/07/08 07:47:17;;;;;;;2.42;2.13;;;;;;;22.98;46.37;93745.19;5043768;23;20022;-88
2023/07/08 07:49:43;;;;;;;3.05;1.98;;;;;;;22.98;46.55;93742.44;5070995;22;20057;-89
2023/07/08 07:52:10;;;;;;;3.95;1.90;;;;;;;23.01;46.47;93740.63;5118020;22;20081;-89
2023/07/08 07:54:37;;;;;;;2.33;1.77;;;;;;;23.01;46.18;93751.66;5046365;22;20049;-90
2023/07/08 07:57:02;;;;;;;1.83;1.60;;;;;;;22.99;46.41;93743.91;5060946;22;20017;-89
2023/07/08 07:59:28;;;;;;;2.03;1.70;;;;;;;23.01;46.15;93748.91;5114928;23;20046;-89
2023/07/08 08:01:54;;;;;;;3.55;1.95;;;;;;;23.02;46.20;93750.38;5039788;22;20043;-90
2023/07/08 08:04:21;;;;;;;2.20;1.58;;;;;;;23.02;46.33;93753.88;5039447;28;20057;-89
2023/07/08 08:06:47;;;;;;;2.85;2.05;;;;;;;23.02;46.40;93750.38;5053425;22;20046;-88
2023/07/08 08:09:12;;;;;;;2.20;1.90;;;;;;;23.02;46.40;93748.38;5067456;23;20080;-91
2023/07/08 08:14:04;;;;;;;2.45;2.17;;;;;;;23.00;46.37;93747.41;5082245;22;20024;-91
2023/07/08 08:16:30;;;;;;;3.28;2.50;;;;;;;23.01;46.58;93754.41;5165022;22;20046;-90
2023/07/08 08:18:55;;;;;;;3.75;2.60;;;;;;;23.01;46.47;93760.69;5057440;23;20049;-90
2023/07/08 08:21:21;;;;;;;2.95;2.00;;;;;;;23.05;46.40;93757.59;5059003;22;20041;-90
2023/07/08 08:23:47;;;;;;;2.88;1.92;;;;;;;23.04;46.33;93761.63;5026252;22;20042;-88
2023/07/08 08:26:12;;;;;;;2.90;2.10;;;;;;;23.04;46.58;93762.38;5031898;22;20077;-89
2023/07/08 08:28:53;;;;;;;3.17;2.33;;;;;;;23.04;46.34;93767.88;5001564;23;20371;-89
2023/07/08 08:31:20;;;;;;;2.85;2.10;;;;;;;23.05;46.27;93771.38;5049951;23;20034;-89
2023/07/08 08:33:46;;;;;;;3.42;2.67;;;;;;;23.04;46.40;93772.66;5073564;22;20114;-89
2023/07/08 08:36:11;;;;;;;4.78;1.90;;;;;;;23.06;46.21;93776.38;5031346;28;20050;-90
2023/07/08 08:41:12;;;;;;;2.65;2.10;;;;;;;23.02;46.48;93770.44;5067015;28;20037;-91
2023/07/08 08:43:39;;;;;;;4.68;2.35;;;;;;;23.03;46.27;93782.94;5050462;28;20033;-89
2023/07/08 08:46:26;;;;;;;2.92;2.33;;;;;;;23.03;46.34;93773.94;5054369;22;20116;-88
2023/07/08 08:48:53;;;;;;;2.80;1.90;;;;;;;23.06;46.27;93779.13;5064577;28;20048;-89
2023/07/08 08:51:18;;;;;;;4.85;2.10;;;;;;;23.04;46.32;93775.41;5045661;28;20101;-89
2023/07/08 08:53:44;;;;;;;7.28;2.40;;;;;;;23.03;46.35;93771.91;5019244;23;20029;-89
2023/07/08 08:56:11;;;;;;;2.42;2.05;;;;;;;23.04;46.14;93769.91;5044518;28;20026;-89
2023/07/08 08:58:41;;;;;;;2.63;2.20;;;;;;;23.05;46.32;93766.63;5045101;28;20037;-89
2023/07/08 09:01:13;;;;;;;2.10;1.90;;;;;;;23.03;46.44;93773.94;5039193;28;20035;-88
2023/07/08 09:03:42;;;;;;;3.35;2.40;;;;;;;23.03;46.39;93773.94;5023586;28;20066;-89
2023/07/08 09:06:27;;;;;;;3.97;2.50;;;;;;;23.05;46.09;93768.63;5006122;28;20030;-89
2023/07/08 09:08:52;;;;;;;3.22;2.28;;;;;;;23.03;46.29;93771.16;5028897;28;20041;-89
2023/07/08 09:11:40;;;;;;;2.03;1.73;;;;;;;23.05;46.33;93765.88;5026789;28;20034;-89
2023/07/08 09:14:24;;;;;;;3.38;2.53;;;;;;;23.04;46.37;93767.88;5041429;28;20018;-89
2023/07/08 09:17:17;;;;;;;2.47;2.08;;;;;;;23.05;46.44;93765.88;5010262;28;20038;-89
2023/07/08 09:20:14;;;;;;;3.50;2.47;;;;;;;23.04;46.39;93770.66;5049163;22;20056;-88
2023/07/08 09:23:12;;;;;;;3.75;2.50;;;;;;;23.05;46.39;93763.13;5057262;22;20538;-89
2023/07/08 09:28:05;;;;;;;4.05;2.65;;;;;;;23.05;46.33;93766.63;5066768;28;20036;-89
2023/07/08 09:30:30;;;;;;;2.35;2.15;;;;;;;23.04;46.26;93753.34;5049805;23;20042;-89
2023/07/08 09:33:04;;;;;;;3.25;2.38;;;;;;;23.04;46.33;93765.13;5051703;22;20130;-89
2023/07/08 09:35:38;;;;;;;3.97;2.00;;;;;;;23.05;46.31;93765.88;5027405;28;20052;-88
2023/07/08 09:38:08;;;;;;;3.13;2.40;;;;;;;23.05;46.27;93769.38;5013298;28;20045;-89
2023/07/08 09:40:33;;;;;;;5.73;2.90;;;;;;;23.09;46.29;93763.53;5050070;22;20049;-89
2023/07/08 09:43:02;;;;;;;4.00;2.53;;;;;;;23.06;46.38;93773.63;5048707;28;20060;-90
2023/07/08 09:45:27;;;;;;;4.50;2.83;;;;;;;23.08;46.14;93770.31;5046338;28;20033;-89
2023/07/08 09:47:57;;;;;;;4.13;2.50;;;;;;;23.09;46.18;93769.06;5067919;22;20034;-89
2023/07/08 09:50:27;;;;;;;3.08;1.90;;;;;;;23.09;46.35;93772.56;5024175;23;20038;-90
2023/07/08 09:52:57;;;;;;;6.07;3.05;;;;;;;23.08;46.17;93771.06;5024659;28;20038;-89
2023/07/08 09:55:24;;;;;;;5.93;2.70;;;;;;;23.10;46.10;93770.53;5025540;28;20052;-89
2023/07/08 09:57:53;;;;;;;4.40;2.40;;;;;;;23.09;46.04;93777.31;5024776;28;20064;-88
2023/07/08 10:00:25;;;;;;;3.00;2.45;;;;;;;23.11;46.04;93780.28;4991224;28;20094;-89
2023/07/08 10:02:56;;;;;;;2.40;2.20;;;;;;;23.10;46.33;93771.28;5005264;28;20045;-90
2023/07/08 10:05:38;;;;;;;6.80;2.75;;;;;;;23.10;46.26;93787.09;5011899;28;20038;-89
2023/07/08 10:08:16;;;;;;;3.40;2.28;;;;;;;23.10;46.23;93782.31;5008627;28;20038;-89
2023/07/08 10:10:41;;;;;;;7.20;3.03;;;;;;;23.11;46.40;93777.53;5027202;28;20485;-89
2023/07/08 10:13:22;;;;;;;4.50;2.50;;;;;;;23.11;46.43;93774.78;5004385;22;20046;-90
2023/07/08 10:16:01;;;;;;;6.50;2.63;;;;;;;23.11;45.92;93783.06;5034688;22;20048;-90
2023/07/08 10:18:29;;;;;;;4.50;2.95;;;;;;;23.11;46.27;93789.31;5024998;28;20391;-89
2023/07/08 10:21:09;;;;;;;6.72;2.65;;;;;;;23.13;46.26;93788.78;5029873;28;20041;-89
2023/07/08 10:23:54;;;;;;;7.22;2.58;;;;;;;23.13;46.30;93795.03;5048430;28;20025;-89
2023/07/08 10:26:27;;;;;;;6.68;3.20;;;;;;;23.13;46.26;93786.03;5034321;28;20045;-90
2023/07/08 10:29:12;;;;;;;5.75;2.70;;;;;;;23.12;46.10;93779.03;5046245;23;20017;-90
2023/07/08 10:31:47;;;;;;;5.70;2.58;;;;;;;23.12;46.20;93784.53;5063925;23;20034;-89
2023/07/08 10:34:49;;;;;;;3.88;2.30;;;;;;;23.10;46.29;93779.56;5013314;28;20025;-89
2023/07/08 10:37:32;;;;;;;3.90;2.33;;;;;;;23.11;46.12;93777.53;5034741;28;20037;-90
2023/07/08 10:40:15;;;;;;;3.72;2.30;;;;;;;23.12;46.16;93779.75;5031320;28;20374;-91
2023/07/08 10:42:44;;;;;;;8.15;3.05;;;;;;;23.12;46.20;93782.53;5134970;23;20096;-89
2023/07/08 10:45:16;;;;;;;5.75;2.53;;;;;;;23.15;46.23;93789.00;5049393;28;20053;-89
2023/07/08 10:48:08;;;;;;;5.30;2.88;;;;;;;23.13;46.28;93788.78;5047922;22;20049;-88
2023/07/08 10:51:03;;;;;;;4.78;2.50;;;;;;;23.12;46.15;93781.78;5076733;22;20028;-89
2023/07/08 10:53:28;;;;;;;5.18;2.47;;;;;;;23.14;46.31;93788.25;5040791;22;20054;-89
2023/07/08 10:55:58;;;;;;;6.50;3.10;;;;;;;23.14;46.15;93771.69;5045818;28;20014;-92
2023/07/08 10:58:51;;;;;;;3.90;2.17;;;;;;;23.14;46.34;93773.72;5044336;22;20072;-89
2023/07/08 11:01:32;;;;;;;5.22;2.80;;;;;;;23.15;46.11;93772.44;5049487;23;20058;-92
2023/07/08 11:04:16;;;;;;;5.57;2.88;;;;;;;23.15;46.20;93772.44;5027277;28;20038;-89
2023/07/08 11:06:52;;;;;;;6.57;2.75;;;;;;;23.14;46.15;93777.22;5030614;28;20046;-89
2023/07/08 11:09:40;;;;;;;5.13;2.92;;;;;;;23.14;46.20;93777.22;5031163;28;20050;-89
2023/07/08 11:12:19;;;;;;;6.28;2.50;;;;;;;23.14;46.41;93768.19;5030842;28;20034;-92
2023/07/08 11:14:50;;;;;;;6.45;2.88;;;;;;;23.13;46.09;93772.22;4987735;28;20048;-89
2023/07/08 11:17:24;;;;;;;4.90;2.35;;;;;;;23.15;46.29;93778.69;5015398;28;20617;-89
2023/07/08 11:19:59;;;;;;;6.38;2.47;;;;;;;23.16;46.19;93784.97;4986544;28;20041;-89
2023/07/08 11:22:27;;;;;;;4.95;2.33;;;;;;;23.19;46.33;93784.59;5045017;23;20044;-89
2023/07/08 11:24:53;;;;;;;4.85;2.38;;;;;;;23.16;46.18;93774.66;5051205;23;20118;-90
2023/07/08 11:27:34;;;;;;;5.28;2.42;;;;;;;23.17;46.28;93772.63;5001823;28;20046;-91
2023/07/08 11:29:59;;;;;;;;;;;;;;;23.16;46.24;93774.66;5041288;22;20058;-89
2023/07/08 11:32:26;;;;;;;3.73;2.40;;;;;;;23.20;46.32;93779.84;5053923;28;19905;-92
2023/07/08 11:34:53;;;;;;;3.45;2.40;;;;;;;23.19;46.32;93787.38;5037239;28;20270;-89
2023/07/08 11:37:21;;;;;;;4.43;2.55;;;;;;;23.22;46.43;93786.31;5037562;28;20044;-90
2023/07/08 11:39:52;;;;;;;3.42;2.10;;;;;;;23.19;46.16;93778.34;5044960;23;20105;-90
2023/07/08 11:42:23;;;;;;;5.03;3.10;;;;;;;23.20;46.50;93779.84;5035772;28;20133;-90
2023/07/08 11:48:06;;;;;;;3.92;2.22;;;;;;;23.18;46.29;93769.34;5085208;22;20036;-89
2023/07/08 11:50:35;;;;;;;5.43;2.75;;;;;;;23.21;46.30;93767.53;5035449;28;20072;-89
2023/07/08 11:53:08;;;;;;;5.13;1.93;;;;;;;23.19;46.28;93765.31;5041059;23;20054;-90
2023/07/08 11:55:38;;;;;;;5.28;2.15;;;;;;;23.21;46.38;93767.53;5023917;22;20060;-90
2023/07/08 11:58:19;;;;;;;5.93;2.22;;;;;;;23.21;46.23;93773.78;5032901;28;20136;-90
2023/07/08 12:00:45;;;;;;;5.05;2.50;;;;;;;23.24;46.33;93772.72;5024153;23;20037;-89
2023/07/08 12:03:21;;;;;;;3.45;2.10;;;;;;;23.22;46.46;93767.00;5111556;23;20004;-89
2023/07/08 12:05:47;;;;;;;5.07;2.40;;;;;;;23.25;46.45;93759.69;5056245;28;20036;-92